sensor_id;sensor_type;location;lat;lon;timestamp;temperature;humidity
38118;DHT22;23928;47.562;7.508;2022-11-20T00:01:40;6.60;99.90
38118;DHT22;23928;47.562;7.508;2022-11-20T00:04:06;6.50;99.90
38118;DHT22;23928;47.562;7.508;2022-11-20T00:06:32;6.60;99.90
38118;DHT22;23928;47.562;7.508;2022-11-20T00:08:59;6.60;99.90
38118;DHT22;23928;47.562;7.508;2022-11-20T00:11:27;6.60;99.90
38118;DHT22;23928;47.562;7.508;2022-11-20T00:13:55;6.50;99.90
38118;DHT22;23928;47.562;7.508;2022-11-20T00:16:24;6.50;99.90
38118;DHT22;23928;47.562;7.508;2022-11-20T00:18:51;6.50;99.90
38118;DHT22;23928;47.562;7.508;2022-11-20T00:21:21;6.60;99.90
38118;DHT22;23928;47.562;7.508;2022-11-20T00:23:48;6.50;99.90
38118;DHT22;23928;47.562;7.508;2022-11-20T00:26:15;6.40;99.90
38118;DHT22;23928;47.562;7.508;2022-11-20T00:28:43;6.40;99.90
38118;DHT22;23928;47.562;7.508;2022-11-20T00:31:13;6.40;99.90
38118;DHT22;23928;47.562;7.508;2022-11-20T00:33:40;6.40;99.90
38118;DHT22;23928;47.562;7.508;2022-11-20T00:36:11;6.40;99.90
38118;DHT22;23928;47.562;7.508;2022-11-20T00:38:37;6.40;99.90
38118;DHT22;23928;47.562;7.508;2022-11-20T00:41:08;6.40;99.90
38118;DHT22;23928;47.562;7.508;2022-11-20T00:43:34;6.40;99.90
38118;DHT22;23928;47.562;7.508;2022-11-20T00:46:05;6.50;99.90
38118;DHT22;23928;47.562;7.508;2022-11-20T00:48:31;6.40;99.90
38118;DHT22;23928;47.562;7.508;2022-11-20T00:50:57;6.50;99.90
38118;DHT22;23928;47.562;7.508;2022-11-20T00:53:23;6.50;99.90
38118;DHT22;23928;47.562;7.508;2022-11-20T00:55:54;6.50;99.90
38118;DHT22;23928;47.562;7.508;2022-11-20T00:58:20;6.50;99.90
38118;DHT22;23928;47.562;7.508;2022-11-20T01:00:46;6.50;99.90
38118;DHT22;23928;47.562;7.508;2022-11-20T01:03:11;6.50;99.90
38118;DHT22;23928;47.562;7.508;2022-11-20T01:05:37;6.60;99.90
38118;DHT22;23928;47.562;7.508;2022-11-20T01:08:03;6.60;99.90
38118;DHT22;23928;47.562;7.508;2022-11-20T01:10:29;6.60;99.90
38118;DHT22;23928;47.562;7.508;2022-11-20T01:12:54;6.60;99.90
38118;DHT22;23928;47.562;7.508;2022-11-20T01:15:38;6.60;99.90
38118;DHT22;23928;47.562;7.508;2022-11-20T01:18:04;6.50;99.90
38118;DHT22;23928;47.562;7.508;2022-11-20T01:20:34;6.40;99.90
38118;DHT22;23928;47.562;7.508;2022-11-20T01:22:59;6.40;99.90
38118;DHT22;23928;47.562;7.508;2022-11-20T01:25:25;6.40;99.90
38118;DHT22;23928;47.562;7.508;2022-11-20T01:27:50;6.40;99.90
38118;DHT22;23928;47.562;7.508;2022-11-20T01:30:16;6.30;99.90
38118;DHT22;23928;47.562;7.508;2022-11-20T01:32:42;6.40;99.90
38118;DHT22;23928;47.562;7.508;2022-11-20T01:35:07;6.30;99.90
38118;DHT22;23928;47.562;7.508;2022-11-20T01:37:34;6.30;99.90
38118;DHT22;23928;47.562;7.508;2022-11-20T01:40:00;6.30;99.90
38118;DHT22;23928;47.562;7.508;2022-11-20T01:42:26;6.20;99.90
38118;DHT22;23928;47.562;7.508;2022-11-20T01:48:11;6.20;99.90
38118;DHT22;23928;47.562;7.508;2022-11-20T01:50:38;6.20;99.90
38118;DHT22;23928;47.562;7.508;2022-11-20T01:53:09;6.20;99.90
38118;DHT22;23928;47.562;7.508;2022-11-20T01:55:41;6.20;99.90
38118;DHT22;23928;47.562;7.508;2022-11-20T01:58:08;6.30;99.90
38118;DHT22;23928;47.562;7.508;2022-11-20T02:00:35;6.30;99.90
38118;DHT22;23928;47.562;7.508;2022-11-20T02:03:04;6.30;99.90
38118;DHT22;23928;47.562;7.508;2022-11-20T02:05:47;6.30;99.90
38118;DHT22;23928;47.562;7.508;2022-11-20T02:08:15;6.40;99.90
38118;DHT22;23928;47.562;7.508;2022-11-20T02:10:42;6.40;99.90
38118;DHT22;23928;47.562;7.508;2022-11-20T02:13:08;6.40;99.90
38118;DHT22;23928;47.562;7.508;2022-11-20T02:15:52;6.40;99.90
38118;DHT22;23928;47.562;7.508;2022-11-20T02:18:19;6.30;99.90
38118;DHT22;23928;47.562;7.508;2022-11-20T02:20:47;6.40;99.90
38118;DHT22;23928;47.562;7.508;2022-11-20T02:23:25;6.30;99.90
38118;DHT22;23928;47.562;7.508;2022-11-20T02:25:54;6.40;99.90
38118;DHT22;23928;47.562;7.508;2022-11-20T02:28:20;6.40;99.90
38118;DHT22;23928;47.562;7.508;2022-11-20T02:30:45;6.40;99.90
38118;DHT22;23928;47.562;7.508;2022-11-20T02:33:12;6.40;99.90
38118;DHT22;23928;47.562;7.508;2022-11-20T02:35:43;6.40;99.90
38118;DHT22;23928;47.562;7.508;2022-11-20T02:38:09;6.30;99.90
38118;DHT22;23928;47.562;7.508;2022-11-20T02:40:35;6.40;99.90
38118;DHT22;23928;47.562;7.508;2022-11-20T02:43:01;6.30;99.90
38118;DHT22;23928;47.562;7.508;2022-11-20T02:45:26;6.40;99.90
38118;DHT22;23928;47.562;7.508;2022-11-20T02:47:52;6.40;99.90
38118;DHT22;23928;47.562;7.508;2022-11-20T02:50:18;6.40;99.90
38118;DHT22;23928;47.562;7.508;2022-11-20T02:52:44;6.30;99.90
38118;DHT22;23928;47.562;7.508;2022-11-20T02:55:09;6.40;99.90
38118;DHT22;23928;47.562;7.508;2022-11-20T02:57:35;6.40;99.90
38118;DHT22;23928;47.562;7.508;2022-11-20T03:00:02;6.40;99.90
38118;DHT22;23928;47.562;7.508;2022-11-20T03:02:31;6.40;99.90
38118;DHT22;23928;47.562;7.508;2022-11-20T03:04:56;6.50;99.90
38118;DHT22;23928;47.562;7.508;2022-11-20T03:07:22;6.50;99.90
38118;DHT22;23928;47.562;7.508;2022-11-20T03:09:48;6.50;99.90
38118;DHT22;23928;47.562;7.508;2022-11-20T03:12:13;6.50;99.90
38118;DHT22;23928;47.562;7.508;2022-11-20T03:14:39;6.50;99.90
38118;DHT22;23928;47.562;7.508;2022-11-20T03:17:04;6.50;99.90
38118;DHT22;23928;47.562;7.508;2022-11-20T03:19:30;6.50;99.90
38118;DHT22;23928;47.562;7.508;2022-11-20T03:21:56;6.40;99.90
38118;DHT22;23928;47.562;7.508;2022-11-20T03:24:21;6.40;99.90
38118;DHT22;23928;47.562;7.508;2022-11-20T03:26:47;6.40;99.90
38118;DHT22;23928;47.562;7.508;2022-11-20T03:29:12;6.30;99.90
38118;DHT22;23928;47.562;7.508;2022-11-20T03:31:39;6.50;99.90
38118;DHT22;23928;47.562;7.508;2022-11-20T03:34:07;6.30;99.90
38118;DHT22;23928;47.562;7.508;2022-11-20T03:36:33;6.40;99.90
38118;DHT22;23928;47.562;7.508;2022-11-20T03:38:58;6.40;99.90
38118;DHT22;23928;47.562;7.508;2022-11-20T03:41:27;6.50;99.90
38118;DHT22;23928;47.562;7.508;2022-11-20T03:43:58;6.40;99.90
38118;DHT22;23928;47.562;7.508;2022-11-20T03:46:25;6.50;99.90
38118;DHT22;23928;47.562;7.508;2022-11-20T03:48:51;6.50;99.90
38118;DHT22;23928;47.562;7.508;2022-11-20T03:51:19;6.50;99.90
38118;DHT22;23928;47.562;7.508;2022-11-20T03:53:46;6.50;99.90
38118;DHT22;23928;47.562;7.508;2022-11-20T03:56:15;6.40;99.90
38118;DHT22;23928;47.562;7.508;2022-11-20T03:58:41;6.30;99.90
38118;DHT22;23928;47.562;7.508;2022-11-20T04:01:16;6.40;99.90
38118;DHT22;23928;47.562;7.508;2022-11-20T04:03:42;6.50;99.90
38118;DHT22;23928;47.562;7.508;2022-11-20T04:06:11;6.50;99.90
38118;DHT22;23928;47.562;7.508;2022-11-20T04:08:37;6.30;99.90
38118;DHT22;23928;47.562;7.508;2022-11-20T04:13:35;6.50;99.90
38118;DHT22;23928;47.562;7.508;2022-11-20T04:16:01;6.50;99.90
38118;DHT22;23928;47.562;7.508;2022-11-20T04:18:26;6.50;99.90
38118;DHT22;23928;47.562;7.508;2022-11-20T04:20:52;6.60;99.90
38118;DHT22;23928;47.562;7.508;2022-11-20T04:23:17;6.60;99.90
38118;DHT22;23928;47.562;7.508;2022-11-20T04:25:43;6.50;99.90
38118;DHT22;23928;47.562;7.508;2022-11-20T04:28:09;6.60;99.90
38118;DHT22;23928;47.562;7.508;2022-11-20T04:30:34;6.40;99.90
38118;DHT22;23928;47.562;7.508;2022-11-20T04:33:00;6.40;99.90
38118;DHT22;23928;47.562;7.508;2022-11-20T04:35:25;6.40;99.90
38118;DHT22;23928;47.562;7.508;2022-11-20T04:37:51;6.40;99.90
38118;DHT22;23928;47.562;7.508;2022-11-20T04:40:17;6.20;99.90
38118;DHT22;23928;47.562;7.508;2022-11-20T04:42:43;6.10;99.90
38118;DHT22;23928;47.562;7.508;2022-11-20T04:45:09;6.00;99.90
38118;DHT22;23928;47.562;7.508;2022-11-20T04:47:34;6.00;99.90
38118;DHT22;23928;47.562;7.508;2022-11-20T04:50:00;5.80;99.90
38118;DHT22;23928;47.562;7.508;2022-11-20T04:52:25;5.80;99.90
38118;DHT22;23928;47.562;7.508;2022-11-20T04:54:51;5.80;99.90
38118;DHT22;23928;47.562;7.508;2022-11-20T04:57:18;5.80;99.90
38118;DHT22;23928;47.562;7.508;2022-11-20T04:59:44;5.90;99.90
38118;DHT22;23928;47.562;7.508;2022-11-20T05:02:10;5.80;99.90
38118;DHT22;23928;47.562;7.508;2022-11-20T05:04:36;5.90;99.90
38118;DHT22;23928;47.562;7.508;2022-11-20T05:07:02;5.70;99.90
38118;DHT22;23928;47.562;7.508;2022-11-20T05:09:28;5.80;99.90
38118;DHT22;23928;47.562;7.508;2022-11-20T05:11:53;5.80;99.90
38118;DHT22;23928;47.562;7.508;2022-11-20T05:14:19;5.90;99.90
38118;DHT22;23928;47.562;7.508;2022-11-20T05:16:44;5.90;99.90
38118;DHT22;23928;47.562;7.508;2022-11-20T05:19:10;5.90;99.90
38118;DHT22;23928;47.562;7.508;2022-11-20T05:21:36;5.90;99.90
38118;DHT22;23928;47.562;7.508;2022-11-20T05:24:01;5.90;99.90
38118;DHT22;23928;47.562;7.508;2022-11-20T05:26:27;6.00;99.90
38118;DHT22;23928;47.562;7.508;2022-11-20T05:28:52;6.00;99.90
38118;DHT22;23928;47.562;7.508;2022-11-20T05:31:21;6.00;99.90
38118;DHT22;23928;47.562;7.508;2022-11-20T05:33:46;6.10;99.90
38118;DHT22;23928;47.562;7.508;2022-11-20T05:36:14;6.20;99.90
38118;DHT22;23928;47.562;7.508;2022-11-20T05:38:40;6.20;99.90
38118;DHT22;23928;47.562;7.508;2022-11-20T05:41:16;6.20;99.90
38118;DHT22;23928;47.562;7.508;2022-11-20T05:43:43;6.20;99.90
38118;DHT22;23928;47.562;7.508;2022-11-20T05:46:11;6.30;99.90
38118;DHT22;23928;47.562;7.508;2022-11-20T05:48:38;6.30;99.90
38118;DHT22;23928;47.562;7.508;2022-11-20T05:51:06;6.30;99.90
38118;DHT22;23928;47.562;7.508;2022-11-20T05:53:33;6.20;99.90
38118;DHT22;23928;47.562;7.508;2022-11-20T05:56:05;6.30;99.90
38118;DHT22;23928;47.562;7.508;2022-11-20T05:58:32;6.30;99.90
38118;DHT22;23928;47.562;7.508;2022-11-20T06:01:09;6.30;99.90
38118;DHT22;23928;47.562;7.508;2022-11-20T06:03:35;6.30;99.90
38118;DHT22;23928;47.562;7.508;2022-11-20T06:06:01;6.30;99.90
38118;DHT22;23928;47.562;7.508;2022-11-20T06:08:27;6.30;99.90
38118;DHT22;23928;47.562;7.508;2022-11-20T06:10:53;6.20;99.90
38118;DHT22;23928;47.562;7.508;2022-11-20T06:13:18;6.10;99.90
38118;DHT22;23928;47.562;7.508;2022-11-20T06:15:51;6.10;99.90
38118;DHT22;23928;47.562;7.508;2022-11-20T06:18:17;6.10;99.90
38118;DHT22;23928;47.562;7.508;2022-11-20T06:20:43;6.10;99.90
38118;DHT22;23928;47.562;7.508;2022-11-20T06:23:08;6.20;99.90
38118;DHT22;23928;47.562;7.508;2022-11-20T06:25:38;6.20;99.90
38118;DHT22;23928;47.562;7.508;2022-11-20T06:28:03;6.20;99.90
38118;DHT22;23928;47.562;7.508;2022-11-20T06:30:29;6.20;99.90
38118;DHT22;23928;47.562;7.508;2022-11-20T06:32:55;6.10;99.90
38118;DHT22;23928;47.562;7.508;2022-11-20T06:35:20;6.20;99.90
38118;DHT22;23928;47.562;7.508;2022-11-20T06:37:46;6.00;99.90
38118;DHT22;23928;47.562;7.508;2022-11-20T06:40:12;6.00;99.90
38118;DHT22;23928;47.562;7.508;2022-11-20T06:42:37;6.00;99.90
38118;DHT22;23928;47.562;7.508;2022-11-20T06:45:03;5.90;99.90
38118;DHT22;23928;47.562;7.508;2022-11-20T06:47:29;5.90;99.90
38118;DHT22;23928;47.562;7.508;2022-11-20T06:49:54;5.90;99.90
38118;DHT22;23928;47.562;7.508;2022-11-20T06:52:20;5.90;99.90
38118;DHT22;23928;47.562;7.508;2022-11-20T06:54:45;5.90;99.90
38118;DHT22;23928;47.562;7.508;2022-11-20T06:57:11;5.80;99.90
38118;DHT22;23928;47.562;7.508;2022-11-20T06:59:37;5.80;99.90
38118;DHT22;23928;47.562;7.508;2022-11-20T07:02:02;5.90;99.90
38118;DHT22;23928;47.562;7.508;2022-11-20T07:04:28;5.90;99.90
38118;DHT22;23928;47.562;7.508;2022-11-20T07:06:53;6.00;99.90
38118;DHT22;23928;47.562;7.508;2022-11-20T07:09:19;6.10;99.90
38118;DHT22;23928;47.562;7.508;2022-11-20T07:11:44;6.10;99.90
38118;DHT22;23928;47.562;7.508;2022-11-20T07:14:10;6.50;99.90
38118;DHT22;23928;47.562;7.508;2022-11-20T07:16:35;7.10;99.90
38118;DHT22;23928;47.562;7.508;2022-11-20T07:19:01;7.00;99.90
38118;DHT22;23928;47.562;7.508;2022-11-20T07:21:27;6.90;99.90
38118;DHT22;23928;47.562;7.508;2022-11-20T07:23:52;7.00;99.90
38118;DHT22;23928;47.562;7.508;2022-11-20T07:26:18;6.80;99.90
38118;DHT22;23928;47.562;7.508;2022-11-20T07:28:45;6.70;99.90
38118;DHT22;23928;47.562;7.508;2022-11-20T07:31:10;6.80;99.90
38118;DHT22;23928;47.562;7.508;2022-11-20T07:33:37;6.70;99.90
38118;DHT22;23928;47.562;7.508;2022-11-20T07:36:03;6.70;99.90
38118;DHT22;23928;47.562;7.508;2022-11-20T07:38:29;6.70;99.90
38118;DHT22;23928;47.562;7.508;2022-11-20T07:40:57;6.80;99.90
38118;DHT22;23928;47.562;7.508;2022-11-20T07:43:24;6.80;99.90
38118;DHT22;23928;47.562;7.508;2022-11-20T07:45:50;6.80;99.90
38118;DHT22;23928;47.562;7.508;2022-11-20T07:48:16;6.90;99.90
38118;DHT22;23928;47.562;7.508;2022-11-20T07:50:42;6.90;99.90
38118;DHT22;23928;47.562;7.508;2022-11-20T07:53:07;7.00;99.90
38118;DHT22;23928;47.562;7.508;2022-11-20T07:55:33;7.00;99.90
38118;DHT22;23928;47.562;7.508;2022-11-20T07:57:58;7.00;99.90
38118;DHT22;23928;47.562;7.508;2022-11-20T08:00:25;6.90;99.90
38118;DHT22;23928;47.562;7.508;2022-11-20T08:02:51;7.00;99.90
38118;DHT22;23928;47.562;7.508;2022-11-20T08:05:17;6.90;99.90
38118;DHT22;23928;47.562;7.508;2022-11-20T08:07:43;7.10;99.90
38118;DHT22;23928;47.562;7.508;2022-11-20T08:10:11;7.10;99.90
38118;DHT22;23928;47.562;7.508;2022-11-20T08:12:47;7.20;99.90
38118;DHT22;23928;47.562;7.508;2022-11-20T08:15:32;7.20;99.90
38118;DHT22;23928;47.562;7.508;2022-11-20T08:18:08;7.10;99.90
38118;DHT22;23928;47.562;7.508;2022-11-20T08:20:34;7.10;99.90
38118;DHT22;23928;47.562;7.508;2022-11-20T08:23:02;7.30;99.90
38118;DHT22;23928;47.562;7.508;2022-11-20T08:25:29;7.20;99.90
38118;DHT22;23928;47.562;7.508;2022-11-20T08:28:03;7.30;99.90
38118;DHT22;23928;47.562;7.508;2022-11-20T08:30:29;7.30;99.90
38118;DHT22;23928;47.562;7.508;2022-11-20T08:33:09;7.30;99.90
38118;DHT22;23928;47.562;7.508;2022-11-20T08:35:36;7.30;99.90
38118;DHT22;23928;47.562;7.508;2022-11-20T08:38:05;7.50;99.90
38118;DHT22;23928;47.562;7.508;2022-11-20T08:40:32;7.50;99.90
38118;DHT22;23928;47.562;7.508;2022-11-20T08:42:57;7.50;99.90
38118;DHT22;23928;47.562;7.508;2022-11-20T08:45:23;7.60;99.90
38118;DHT22;23928;47.562;7.508;2022-11-20T08:47:49;7.70;99.90
38118;DHT22;23928;47.562;7.508;2022-11-20T08:50:16;7.80;99.90
38118;DHT22;23928;47.562;7.508;2022-11-20T08:52:42;7.80;99.90
38118;DHT22;23928;47.562;7.508;2022-11-20T08:55:08;7.90;99.90
38118;DHT22;23928;47.562;7.508;2022-11-20T08:57:35;7.90;99.90
38118;DHT22;23928;47.562;7.508;2022-11-20T09:00:02;7.80;99.90
38118;DHT22;23928;47.562;7.508;2022-11-20T09:02:28;7.90;99.90
38118;DHT22;23928;47.562;7.508;2022-11-20T09:04:54;8.00;99.90
38118;DHT22;23928;47.562;7.508;2022-11-20T09:07:20;8.20;99.90
38118;DHT22;23928;47.562;7.508;2022-11-20T09:09:46;8.30;99.90
38118;DHT22;23928;47.562;7.508;2022-11-20T09:12:11;8.40;99.90
38118;DHT22;23928;47.562;7.508;2022-11-20T09:14:37;8.40;99.90
38118;DHT22;23928;47.562;7.508;2022-11-20T09:17:02;8.50;99.90
38118;DHT22;23928;47.562;7.508;2022-11-20T09:19:28;8.40;99.90
38118;DHT22;23928;47.562;7.508;2022-11-20T09:21:54;8.20;99.90
38118;DHT22;23928;47.562;7.508;2022-11-20T09:24:19;8.20;99.90
38118;DHT22;23928;47.562;7.508;2022-11-20T09:26:46;8.40;99.90
38118;DHT22;23928;47.562;7.508;2022-11-20T09:29:11;8.30;99.90
38118;DHT22;23928;47.562;7.508;2022-11-20T09:31:37;8.10;99.90
38118;DHT22;23928;47.562;7.508;2022-11-20T09:34:03;8.30;99.90
38118;DHT22;23928;47.562;7.508;2022-11-20T09:36:28;8.30;99.90
38118;DHT22;23928;47.562;7.508;2022-11-20T09:38:54;8.30;99.90
38118;DHT22;23928;47.562;7.508;2022-11-20T09:41:34;8.30;99.90
38118;DHT22;23928;47.562;7.508;2022-11-20T09:44:34;8.30;99.90
38118;DHT22;23928;47.562;7.508;2022-11-20T09:54:58;8.20;99.90
38118;DHT22;23928;47.562;7.508;2022-11-20T09:57:35;8.10;99.90
38118;DHT22;23928;47.562;7.508;2022-11-20T10:00:04;8.10;99.90
38118;DHT22;23928;47.562;7.508;2022-11-20T10:08:01;8.10;99.90
38118;DHT22;23928;47.562;7.508;2022-11-20T10:10:49;8.20;99.90
38118;DHT22;23928;47.562;7.508;2022-11-20T10:13:27;8.10;99.90
38118;DHT22;23928;47.562;7.508;2022-11-20T10:16:12;8.20;99.90
38118;DHT22;23928;47.562;7.508;2022-11-20T10:26:29;8.60;99.90
38118;DHT22;23928;47.562;7.508;2022-11-20T10:29:16;8.70;99.90
38118;DHT22;23928;47.562;7.508;2022-11-20T10:31:48;8.50;99.90
38118;DHT22;23928;47.562;7.508;2022-11-20T10:34:30;8.50;99.90
38118;DHT22;23928;47.562;7.508;2022-11-20T10:37:02;8.50;99.90
38118;DHT22;23928;47.562;7.508;2022-11-20T10:42:41;8.50;99.90
38118;DHT22;23928;47.562;7.508;2022-11-20T10:50:31;8.70;99.90
38118;DHT22;23928;47.562;7.508;2022-11-20T10:56:20;8.60;99.90
38118;DHT22;23928;47.562;7.508;2022-11-20T11:01:43;8.80;99.90
38118;DHT22;23928;47.562;7.508;2022-11-20T11:07:28;8.90;99.90
38118;DHT22;23928;47.562;7.508;2022-11-20T11:09:56;8.80;99.90
38118;DHT22;23928;47.562;7.508;2022-11-20T11:12:24;8.80;99.90
38118;DHT22;23928;47.562;7.508;2022-11-20T11:14:53;8.90;99.90
38118;DHT22;23928;47.562;7.508;2022-11-20T11:20:05;8.50;99.90
38118;DHT22;23928;47.562;7.508;2022-11-20T11:22:34;8.40;99.90
38118;DHT22;23928;47.562;7.508;2022-11-20T11:27:48;8.40;99.90
38118;DHT22;23928;47.562;7.508;2022-11-20T11:30:16;8.30;99.90
38118;DHT22;23928;47.562;7.508;2022-11-20T11:32:42;8.30;99.90
38118;DHT22;23928;47.562;7.508;2022-11-20T11:35:28;8.40;99.90
38118;DHT22;23928;47.562;7.508;2022-11-20T11:38:06;8.30;99.90
38118;DHT22;23928;47.562;7.508;2022-11-20T11:40:34;8.40;99.90
38118;DHT22;23928;47.562;7.508;2022-11-20T11:43:06;8.60;99.90
38118;DHT22;23928;47.562;7.508;2022-11-20T11:45:54;8.60;99.90
38118;DHT22;23928;47.562;7.508;2022-11-20T11:48:20;8.70;99.90
38118;DHT22;23928;47.562;7.508;2022-11-20T11:50:50;8.80;99.90
38118;DHT22;23928;47.562;7.508;2022-11-20T11:53:19;8.70;99.90
38118;DHT22;23928;47.562;7.508;2022-11-20T11:55:54;8.70;99.90
38118;DHT22;23928;47.562;7.508;2022-11-20T12:04:05;8.60;99.90
38118;DHT22;23928;47.562;7.508;2022-11-20T12:06:37;8.60;99.90
38118;DHT22;23928;47.562;7.508;2022-11-20T12:09:08;8.70;99.90
38118;DHT22;23928;47.562;7.508;2022-11-20T12:14:16;8.70;99.90
38118;DHT22;23928;47.562;7.508;2022-11-20T12:16:45;8.70;99.90
38118;DHT22;23928;47.562;7.508;2022-11-20T12:19:13;8.70;99.90
38118;DHT22;23928;47.562;7.508;2022-11-20T12:21:49;8.70;99.90
38118;DHT22;23928;47.562;7.508;2022-11-20T12:24:42;8.70;99.90
38118;DHT22;23928;47.562;7.508;2022-11-20T12:28:12;8.70;99.90
38118;DHT22;23928;47.562;7.508;2022-11-20T12:30:18;8.60;99.90
38118;DHT22;23928;47.562;7.508;2022-11-20T12:43:22;8.30;99.90
38118;DHT22;23928;47.562;7.508;2022-11-20T12:52:01;8.20;99.90
38118;DHT22;23928;47.562;7.508;2022-11-20T12:54:39;8.10;99.90
38118;DHT22;23928;47.562;7.508;2022-11-20T12:59:45;8.30;99.90
38118;DHT22;23928;47.562;7.508;2022-11-20T13:07:28;8.60;99.90
38118;DHT22;23928;47.562;7.508;2022-11-20T13:09:55;8.60;99.90
38118;DHT22;23928;47.562;7.508;2022-11-20T13:12:30;8.60;99.90
38118;DHT22;23928;47.562;7.508;2022-11-20T13:15:05;8.70;99.90
38118;DHT22;23928;47.562;7.508;2022-11-20T13:20:06;8.90;99.90
38118;DHT22;23928;47.562;7.508;2022-11-20T13:22:48;9.10;99.90
38118;DHT22;23928;47.562;7.508;2022-11-20T13:25:25;9.30;99.90
38118;DHT22;23928;47.562;7.508;2022-11-20T13:27:52;9.50;99.90
38118;DHT22;23928;47.562;7.508;2022-11-20T13:32:54;9.40;99.90
38118;DHT22;23928;47.562;7.508;2022-11-20T13:40:29;9.20;99.90
38118;DHT22;23928;47.562;7.508;2022-11-20T13:45:35;9.10;99.90
38118;DHT22;23928;47.562;7.508;2022-11-20T13:48:17;9.20;99.90
38118;DHT22;23928;47.562;7.508;2022-11-20T13:51:04;9.10;99.90
38118;DHT22;23928;47.562;7.508;2022-11-20T14:02:15;9.10;99.90
38118;DHT22;23928;47.562;7.508;2022-11-20T14:04:52;9.30;99.90
38118;DHT22;23928;47.562;7.508;2022-11-20T14:07:21;9.20;99.90
38118;DHT22;23928;47.562;7.508;2022-11-20T14:09:56;9.10;99.90
38118;DHT22;23928;47.562;7.508;2022-11-20T14:12:33;9.30;99.90
38118;DHT22;23928;47.562;7.508;2022-11-20T14:14:59;9.20;99.90
38118;DHT22;23928;47.562;7.508;2022-11-20T14:17:31;9.20;99.90
38118;DHT22;23928;47.562;7.508;2022-11-20T14:20:12;9.10;99.90
38118;DHT22;23928;47.562;7.508;2022-11-20T14:22:39;9.10;99.90
38118;DHT22;23928;47.562;7.508;2022-11-20T14:27:41;9.20;99.90
38118;DHT22;23928;47.562;7.508;2022-11-20T14:30:17;9.30;99.90
38118;DHT22;23928;47.562;7.508;2022-11-20T14:32:45;9.20;99.90
38118;DHT22;23928;47.562;7.508;2022-11-20T14:35:44;9.20;99.90
38118;DHT22;23928;47.562;7.508;2022-11-20T14:38:12;9.30;99.90
38118;DHT22;23928;47.562;7.508;2022-11-20T14:40:39;9.20;99.90
38118;DHT22;23928;47.562;7.508;2022-11-20T14:43:18;9.30;99.90
38118;DHT22;23928;47.562;7.508;2022-11-20T14:45:48;9.50;99.90
38118;DHT22;23928;47.562;7.508;2022-11-20T14:48:15;9.30;99.90
38118;DHT22;23928;47.562;7.508;2022-11-20T14:50:41;9.30;99.90
38118;DHT22;23928;47.562;7.508;2022-11-20T14:53:06;9.20;99.90
38118;DHT22;23928;47.562;7.508;2022-11-20T14:55:38;9.10;99.90
38118;DHT22;23928;47.562;7.508;2022-11-20T14:58:26;9.10;99.90
38118;DHT22;23928;47.562;7.508;2022-11-20T15:00:57;9.00;99.90
38118;DHT22;23928;47.562;7.508;2022-11-20T15:03:34;8.80;99.90
38118;DHT22;23928;47.562;7.508;2022-11-20T15:06:00;8.70;99.90
38118;DHT22;23928;47.562;7.508;2022-11-20T15:08:26;8.70;99.90
38118;DHT22;23928;47.562;7.508;2022-11-20T15:10:53;8.70;99.90
38118;DHT22;23928;47.562;7.508;2022-11-20T15:13:38;8.50;99.90
38118;DHT22;23928;47.562;7.508;2022-11-20T15:16:20;8.50;99.90
38118;DHT22;23928;47.562;7.508;2022-11-20T15:18:46;8.40;99.90
38118;DHT22;23928;47.562;7.508;2022-11-20T15:21:17;8.40;99.90
38118;DHT22;23928;47.562;7.508;2022-11-20T15:23:43;8.40;99.90
38118;DHT22;23928;47.562;7.508;2022-11-20T15:26:11;8.30;99.90
38118;DHT22;23928;47.562;7.508;2022-11-20T15:28:45;8.30;99.90
38118;DHT22;23928;47.562;7.508;2022-11-20T15:31:17;8.20;99.90
38118;DHT22;23928;47.562;7.508;2022-11-20T15:33:43;8.20;99.90
38118;DHT22;23928;47.562;7.508;2022-11-20T15:36:09;8.10;99.90
38118;DHT22;23928;47.562;7.508;2022-11-20T15:38:36;8.00;99.90
38118;DHT22;23928;47.562;7.508;2022-11-20T15:41:01;8.00;99.90
38118;DHT22;23928;47.562;7.508;2022-11-20T15:43:27;7.90;99.90
38118;DHT22;23928;47.562;7.508;2022-11-20T15:46:06;7.80;99.90
38118;DHT22;23928;47.562;7.508;2022-11-20T15:48:38;7.80;99.90
38118;DHT22;23928;47.562;7.508;2022-11-20T15:53:45;7.70;99.90
38118;DHT22;23928;47.562;7.508;2022-11-20T15:56:14;7.70;99.90
38118;DHT22;23928;47.562;7.508;2022-11-20T15:58:40;7.60;99.90
38118;DHT22;23928;47.562;7.508;2022-11-20T16:01:13;7.60;99.90
38118;DHT22;23928;47.562;7.508;2022-11-20T16:03:39;7.60;99.90
38118;DHT22;23928;47.562;7.508;2022-11-20T16:06:05;7.60;99.90
38118;DHT22;23928;47.562;7.508;2022-11-20T16:08:30;7.50;99.90
38118;DHT22;23928;47.562;7.508;2022-11-20T16:10:56;7.50;99.90
38118;DHT22;23928;47.562;7.508;2022-11-20T16:13:21;7.60;99.90
38118;DHT22;23928;47.562;7.508;2022-11-20T16:16:07;7.70;99.90
38118;DHT22;23928;47.562;7.508;2022-11-20T16:18:36;7.60;99.90
38118;DHT22;23928;47.562;7.508;2022-11-20T16:21:02;7.60;99.90
38118;DHT22;23928;47.562;7.508;2022-11-20T16:23:28;7.70;99.90
38118;DHT22;23928;47.562;7.508;2022-11-20T16:25:54;7.50;99.90
38118;DHT22;23928;47.562;7.508;2022-11-20T16:28:20;7.50;99.90
38118;DHT22;23928;47.562;7.508;2022-11-20T16:30:46;7.50;99.90
38118;DHT22;23928;47.562;7.508;2022-11-20T16:33:15;7.60;99.90
38118;DHT22;23928;47.562;7.508;2022-11-20T16:35:42;7.60;99.90
38118;DHT22;23928;47.562;7.508;2022-11-20T16:38:08;7.50;99.90
38118;DHT22;23928;47.562;7.508;2022-11-20T16:40:34;7.40;99.90
38118;DHT22;23928;47.562;7.508;2022-11-20T16:43:08;7.50;99.90
38118;DHT22;23928;47.562;7.508;2022-11-20T16:45:37;7.50;99.90
38118;DHT22;23928;47.562;7.508;2022-11-20T16:48:05;7.50;99.90
38118;DHT22;23928;47.562;7.508;2022-11-20T16:50:30;7.60;99.90
38118;DHT22;23928;47.562;7.508;2022-11-20T16:52:56;7.50;99.90
38118;DHT22;23928;47.562;7.508;2022-11-20T16:55:21;7.50;99.90
38118;DHT22;23928;47.562;7.508;2022-11-20T16:57:47;7.50;99.90
38118;DHT22;23928;47.562;7.508;2022-11-20T17:00:13;7.60;99.90
38118;DHT22;23928;47.562;7.508;2022-11-20T17:02:38;7.50;99.90
38118;DHT22;23928;47.562;7.508;2022-11-20T17:05:05;7.50;99.90
38118;DHT22;23928;47.562;7.508;2022-11-20T17:07:30;7.50;99.90
38118;DHT22;23928;47.562;7.508;2022-11-20T17:09:56;7.60;99.90
38118;DHT22;23928;47.562;7.508;2022-11-20T17:12:22;7.40;99.90
38118;DHT22;23928;47.562;7.508;2022-11-20T17:14:49;7.40;99.90
38118;DHT22;23928;47.562;7.508;2022-11-20T17:17:14;7.40;99.90
38118;DHT22;23928;47.562;7.508;2022-11-20T17:19:40;7.50;99.90
38118;DHT22;23928;47.562;7.508;2022-11-20T17:22:05;7.40;99.90
38118;DHT22;23928;47.562;7.508;2022-11-20T17:24:31;7.50;99.90
38118;DHT22;23928;47.562;7.508;2022-11-20T17:26:57;7.30;99.90
38118;DHT22;23928;47.562;7.508;2022-11-20T17:29:22;7.20;99.90
38118;DHT22;23928;47.562;7.508;2022-11-20T17:31:49;7.20;99.90
38118;DHT22;23928;47.562;7.508;2022-11-20T17:34:15;7.30;99.90
38118;DHT22;23928;47.562;7.508;2022-11-20T17:36:41;7.30;99.90
38118;DHT22;23928;47.562;7.508;2022-11-20T17:39:12;7.30;99.90
38118;DHT22;23928;47.562;7.508;2022-11-20T17:41:37;7.30;99.90
38118;DHT22;23928;47.562;7.508;2022-11-20T17:44:03;7.20;99.90